createdAt,value
2018-02-24T00:01:13.427Z,9.27
2018-02-24T00:03:41.765Z,9.23
2018-02-24T00:06:09.305Z,10.07
2018-02-24T00:08:36.844Z,9.17
2018-02-24T00:11:04.400Z,9.97
2018-02-24T00:13:31.940Z,9.83
2018-02-24T00:15:59.508Z,9.57
2018-02-24T00:18:28.272Z,9.67
2018-02-24T00:20:56.612Z,10.20
2018-02-24T00:23:24.183Z,10.13
2018-02-24T00:25:51.755Z,10.13
2018-02-24T00:28:19.299Z,9.93
2018-02-24T00:30:46.864Z,11.10
2018-02-24T00:33:14.402Z,10.07
2018-02-24T00:35:42.728Z,9.77
2018-02-24T00:38:10.271Z,10.40
2018-02-24T00:40:38.607Z,10.90
2018-02-24T00:43:06.148Z,10.73
2018-02-24T00:45:33.691Z,10.00
2018-02-24T00:48:02.020Z,10.97
2018-02-24T00:50:29.564Z,10.50
2018-02-24T00:52:57.909Z,11.13
2018-02-24T00:55:25.471Z,11.50
2018-02-24T00:57:53.049Z,10.83
2018-02-24T01:00:21.393Z,10.03
2018-02-24T01:02:48.956Z,10.40
2018-02-24T01:05:17.265Z,10.73
2018-02-24T01:07:44.827Z,10.50
2018-02-24T01:10:12.395Z,10.23
2018-02-24T01:12:39.986Z,10.67
2018-02-24T01:15:07.533Z,10.83
2018-02-24T01:17:35.866Z,10.60
2018-02-24T01:20:03.414Z,10.53
2018-02-24T01:22:30.994Z,10.20
2018-02-24T01:24:58.553Z,10.67
2018-02-24T01:27:26.798Z,10.23
2018-02-24T01:29:54.365Z,10.63
2018-02-24T01:32:21.957Z,11.03
2018-02-24T01:34:50.291Z,11.17
2018-02-24T01:37:17.830Z,10.53
2018-02-24T01:39:45.395Z,10.50
2018-02-24T01:42:13.708Z,10.63
2018-02-24T01:44:41.276Z,10.90
2018-02-24T01:47:08.824Z,11.07
2018-02-24T01:49:37.151Z,11.07
2018-02-24T01:52:04.720Z,10.43
2018-02-24T01:54:32.300Z,10.43
2018-02-24T01:56:59.843Z,11.50
2018-02-24T01:59:27.427Z,10.53
2018-02-24T02:01:54.995Z,11.00
2018-02-24T02:04:22.547Z,9.67
2018-02-24T02:06:50.868Z,10.10
2018-02-24T02:09:18.420Z,10.70
2018-02-24T02:11:45.982Z,10.90
2018-02-24T02:14:13.525Z,11.20
2018-02-24T02:16:41.100Z,11.37
2018-02-24T02:19:08.650Z,11.60
2018-02-24T02:21:36.223Z,11.20
2018-02-24T02:24:03.767Z,10.30
2018-02-24T02:26:31.327Z,10.10
2018-02-24T02:28:58.871Z,10.40
2018-02-24T02:31:27.212Z,11.37
2018-02-24T02:33:54.765Z,10.70
2018-02-24T02:36:22.340Z,10.90
2018-02-24T02:38:49.884Z,11.43
2018-02-24T02:41:17.432Z,10.40
2018-02-24T02:43:45.776Z,10.50
2018-02-24T02:46:13.324Z,10.87
2018-02-24T02:48:40.910Z,10.53
2018-02-24T02:51:08.455Z,10.60
2018-02-24T02:53:36.012Z,9.93
2018-02-24T02:56:04.331Z,10.63
2018-02-24T02:58:31.897Z,10.20
2018-02-24T03:00:59.444Z,10.33
2018-02-24T03:03:27.775Z,11.37
2018-02-24T03:05:55.331Z,10.37
2018-02-24T03:08:22.909Z,10.37
2018-02-24T03:10:50.452Z,10.37
2018-02-24T03:13:18.780Z,11.07
2018-02-24T03:15:46.324Z,10.63
2018-02-24T03:18:13.909Z,9.33
2018-02-24T03:20:41.447Z,11.80
2018-02-24T03:23:09.757Z,9.90
2018-02-24T03:25:37.323Z,10.47
2018-02-24T03:28:04.871Z,10.53
2018-02-24T03:30:32.500Z,10.90
2018-02-24T03:33:00.010Z,9.97
2018-02-24T03:35:27.584Z,11.10
2018-02-24T03:37:55.132Z,10.57
2018-02-24T03:40:23.167Z,10.20
2018-02-24T03:42:50.711Z,10.30
2018-02-24T03:45:19.047Z,10.47
2018-02-24T03:47:46.588Z,9.93
2018-02-24T03:50:14.920Z,10.97
2018-02-24T03:52:42.463Z,10.30
2018-02-24T03:55:10.044Z,9.73
2018-02-24T03:57:37.584Z,9.40
2018-02-24T04:00:05.887Z,9.80
2018-02-24T04:02:33.447Z,9.30
2018-02-24T04:05:01.752Z,9.23
2018-02-24T04:07:29.311Z,9.10
2018-02-24T04:09:57.627Z,9.70
2018-02-24T04:12:25.201Z,9.23
2018-02-24T04:14:52.743Z,9.00
2018-02-24T04:17:21.072Z,9.57
2018-02-24T04:19:48.611Z,9.07
2018-02-24T04:22:16.171Z,9.87
2018-02-24T04:24:44.488Z,10.20
2018-02-24T04:27:12.057Z,9.77
2018-02-24T04:29:39.603Z,9.50
2018-02-24T04:32:07.944Z,9.30
2018-02-24T04:34:35.490Z,9.50
2018-02-24T04:37:03.031Z,9.17
2018-02-24T04:39:31.359Z,9.93
2018-02-24T04:41:58.900Z,9.53
2018-02-24T04:44:26.464Z,10.00
2018-02-24T04:46:54.786Z,9.97
2018-02-24T04:49:22.364Z,9.47
2018-02-24T04:51:49.907Z,9.80
2018-02-24T04:54:17.470Z,10.20
2018-02-24T04:56:45.775Z,9.57
2018-02-24T04:59:13.335Z,9.33
2018-02-24T05:01:40.891Z,9.07
2018-02-24T05:04:09.213Z,9.43
2018-02-24T05:06:36.755Z,8.70
2018-02-24T05:09:05.088Z,8.50
2018-02-24T05:11:32.632Z,9.10
2018-02-24T05:14:00.204Z,8.90
2018-02-24T05:16:27.760Z,9.53
2018-02-24T05:18:56.081Z,9.87
2018-02-24T05:21:23.647Z,9.70
2018-02-24T05:23:51.183Z,9.77
2018-02-24T05:26:19.505Z,9.10
2018-02-24T05:28:47.049Z,7.83
2018-02-24T05:31:15.381Z,8.73
2018-02-24T05:33:42.921Z,8.90
2018-02-24T05:36:10.492Z,9.07
2018-02-24T05:38:38.040Z,8.83
2018-02-24T05:41:05.604Z,8.87
2018-02-24T05:43:33.147Z,8.47
2018-02-24T05:46:00.715Z,8.30
2018-02-24T05:48:28.259Z,8.17
2018-02-24T05:50:55.836Z,8.47
2018-02-24T05:53:23.384Z,8.70
2018-02-24T05:55:50.955Z,9.07
2018-02-24T05:58:18.499Z,8.13
2018-02-24T06:00:46.046Z,8.37
2018-02-24T06:03:13.615Z,7.77
2018-02-24T06:05:41.173Z,8.03
2018-02-24T06:08:08.738Z,8.13
2018-02-24T06:10:36.274Z,8.67
2018-02-24T06:13:04.666Z,8.57
2018-02-24T06:15:33.504Z,7.83
2018-02-24T06:18:01.069Z,8.00
2018-02-24T06:20:28.609Z,8.07
2018-02-24T06:22:56.942Z,7.90
2018-02-24T06:25:24.498Z,8.17
2018-02-24T06:27:52.091Z,7.83
2018-02-24T06:30:19.640Z,7.93
2018-02-24T06:32:47.176Z,8.00
2018-02-24T06:35:15.500Z,8.40
2018-02-24T06:37:43.046Z,8.63
2018-02-24T06:40:11.372Z,7.90
2018-02-24T06:42:38.921Z,7.53
2018-02-24T06:45:06.493Z,8.10
2018-02-24T06:47:34.038Z,7.30
2018-02-24T06:50:02.380Z,7.10
2018-02-24T06:52:29.924Z,7.43
2018-02-24T06:54:57.491Z,7.43
2018-02-24T06:57:25.041Z,7.07
2018-02-24T06:59:53.455Z,7.63
2018-02-24T07:02:20.992Z,7.50
2018-02-24T07:04:48.536Z,8.00
2018-02-24T07:07:16.112Z,7.10
2018-02-24T07:09:43.643Z,7.90
2018-02-24T07:12:11.205Z,7.20
2018-02-24T07:14:38.772Z,8.00
2018-02-24T07:17:07.076Z,7.57
2018-02-24T07:19:34.620Z,7.60
2018-02-24T07:22:02.964Z,7.70
2018-02-24T07:24:30.501Z,7.63
2018-02-24T07:26:58.175Z,6.90
2018-02-24T07:29:25.753Z,7.80
2018-02-24T07:31:53.311Z,7.67
2018-02-24T07:36:57.808Z,7.43
2018-02-24T07:39:25.368Z,7.23
2018-02-24T07:41:53.857Z,8.17
2018-02-24T07:44:21.435Z,7.87
2018-02-24T07:46:48.972Z,7.70
2018-02-24T07:49:17.280Z,7.73
2018-02-24T07:51:44.840Z,7.87
2018-02-24T07:54:13.145Z,7.57
2018-02-24T07:56:40.704Z,8.00
2018-02-24T07:59:09.073Z,7.73
2018-02-24T08:01:37.371Z,7.67
2018-02-24T08:04:05.672Z,7.50
2018-02-24T08:06:33.492Z,7.43
2018-02-24T08:09:01.033Z,7.60
2018-02-24T08:11:28.562Z,7.90
2018-02-24T08:13:57.053Z,7.50
2018-02-24T08:16:24.634Z,8.20
2018-02-24T08:18:52.947Z,7.70
2018-02-24T08:21:20.515Z,7.40
2018-02-24T08:23:48.060Z,7.43
2018-02-24T08:26:16.363Z,7.17
2018-02-24T08:28:44.704Z,7.37
2018-02-24T08:31:13.007Z,6.70
2018-02-24T08:33:40.543Z,7.33
2018-02-24T08:36:08.432Z,7.37
2018-02-24T08:38:35.964Z,6.90
2018-02-24T08:41:04.261Z,6.77
2018-02-24T08:43:31.823Z,7.50
2018-02-24T08:46:00.119Z,7.00
2018-02-24T08:48:27.668Z,6.43
2018-02-24T08:50:56.011Z,6.77
2018-02-24T08:53:23.563Z,7.13
2018-02-24T08:55:51.103Z,6.97
2018-02-24T08:58:19.429Z,6.53
2018-02-24T09:00:46.971Z,7.20
2018-02-24T09:03:15.303Z,7.03
2018-02-24T09:05:42.885Z,7.10
2018-02-24T09:08:10.433Z,6.60
2018-02-24T09:10:37.993Z,6.70
2018-02-24T09:13:05.912Z,6.77
2018-02-24T09:15:33.772Z,6.70
2018-02-24T09:18:01.920Z,6.90
2018-02-24T09:20:30.219Z,6.30
2018-02-24T09:22:57.781Z,7.03
2018-02-24T09:25:26.097Z,6.47
2018-02-24T09:27:54.010Z,6.50
2018-02-24T09:30:21.548Z,6.70
2018-02-24T09:32:49.089Z,6.70
2018-02-24T09:35:17.433Z,6.57
2018-02-24T09:37:44.980Z,6.43
2018-02-24T09:40:12.552Z,6.43
2018-02-24T09:42:40.091Z,6.43
2018-02-24T09:45:08.402Z,6.13
2018-02-24T09:47:35.960Z,6.23
2018-02-24T09:50:03.496Z,6.17
2018-02-24T09:52:31.048Z,5.93
2018-02-24T09:54:58.590Z,6.43
2018-02-24T09:57:26.153Z,6.30
2018-02-24T09:59:53.709Z,6.23
2018-02-24T10:02:22.047Z,5.90
2018-02-24T10:04:49.595Z,5.80
2018-02-24T10:07:17.128Z,5.80
2018-02-24T10:09:45.452Z,5.90
2018-02-24T10:12:12.996Z,5.80
2018-02-24T10:14:40.572Z,5.97
2018-02-24T10:17:08.160Z,5.83
2018-02-24T10:19:35.707Z,5.70
2018-02-24T10:22:04.015Z,5.60
2018-02-24T10:24:31.570Z,5.50
2018-02-24T10:26:59.140Z,5.53
2018-02-24T10:29:27.463Z,5.67
2018-02-24T10:31:55.024Z,5.70
2018-02-24T10:34:22.584Z,5.60
2018-02-24T10:36:50.120Z,5.53
2018-02-24T10:39:17.684Z,5.37
2018-02-24T10:41:45.309Z,5.63
2018-02-24T10:44:12.844Z,5.90
2018-02-24T10:46:40.408Z,5.53
2018-02-24T10:49:14.664Z,5.33
2018-02-24T10:51:42.982Z,5.43
2018-02-24T10:54:10.523Z,5.70
2018-02-24T10:56:38.827Z,5.70
2018-02-24T10:59:06.400Z,5.73
2018-02-24T11:01:33.940Z,5.07
2018-02-24T11:04:02.239Z,5.57
2018-02-24T11:06:30.580Z,6.47
2018-02-24T11:08:58.121Z,5.90
2018-02-24T11:11:25.680Z,6.50
2018-02-24T11:13:54.061Z,6.27
2018-02-24T11:16:21.625Z,6.63
2018-02-24T11:18:49.940Z,6.37
2018-02-24T11:21:17.513Z,6.17
2018-02-24T11:23:45.051Z,6.17
2018-02-24T11:26:13.356Z,6.90
2018-02-24T11:28:40.924Z,6.63
2018-02-24T11:31:09.243Z,6.60
2018-02-24T11:33:36.779Z,6.60
2018-02-24T11:36:05.100Z,6.87
2018-02-24T11:38:32.640Z,6.83
2018-02-24T11:41:00.976Z,7.30
2018-02-24T11:43:28.568Z,7.03
2018-02-24T11:45:56.139Z,6.80
2018-02-24T11:48:23.704Z,7.37
2018-02-24T11:50:51.272Z,7.40
2018-02-24T11:53:19.808Z,7.50
2018-02-24T11:55:48.125Z,7.97
2018-02-24T11:58:15.688Z,7.43
2018-02-24T12:00:43.224Z,7.47
2018-02-24T12:03:10.811Z,7.33
2018-02-24T12:05:39.124Z,7.50
2018-02-24T12:08:06.672Z,7.83
2018-02-24T12:10:34.996Z,7.23
2018-02-24T12:13:02.537Z,7.80
2018-02-24T12:15:30.112Z,7.57
2018-02-24T12:17:57.651Z,7.93
2018-02-24T12:20:25.219Z,7.47
2018-02-24T12:22:52.977Z,7.33
2018-02-24T12:25:20.566Z,8.00
2018-02-24T12:27:48.114Z,7.37
2018-02-24T12:30:15.652Z,7.50
2018-02-24T12:32:43.215Z,7.53
2018-02-24T12:35:10.768Z,7.90
2018-02-24T12:37:39.133Z,7.93
2018-02-24T12:40:06.753Z,6.97
2018-02-24T12:42:34.317Z,7.30
2018-02-24T12:45:01.901Z,6.70
2018-02-24T12:47:29.444Z,6.73
2018-02-24T12:49:58.087Z,6.93
2018-02-24T12:52:25.636Z,6.80
2018-02-24T12:54:53.196Z,6.90
2018-02-24T12:57:20.760Z,6.33
2018-02-24T12:59:49.075Z,6.57
2018-02-24T13:02:16.639Z,6.37
2018-02-24T13:04:44.188Z,5.53
2018-02-24T13:07:12.488Z,6.03
2018-02-24T13:09:40.045Z,5.83
2018-02-24T13:12:08.351Z,5.83
2018-02-24T13:14:35.940Z,6.10
2018-02-24T13:17:03.476Z,6.20
2018-02-24T13:19:31.779Z,6.13
2018-02-24T13:22:00.100Z,5.90
2018-02-24T13:24:27.649Z,6.30
2018-02-24T13:26:55.216Z,6.53
2018-02-24T13:29:22.768Z,6.30
2018-02-24T13:31:51.076Z,6.20
2018-02-24T13:34:18.651Z,6.90
2018-02-24T13:36:46.188Z,6.60
2018-02-24T13:39:13.759Z,6.70
2018-02-24T13:41:41.313Z,7.20
2018-02-24T13:44:08.872Z,6.47
2018-02-24T13:46:36.408Z,6.40
2018-02-24T13:49:03.976Z,6.33
2018-02-24T13:51:31.520Z,6.23
2018-02-24T13:53:59.056Z,6.43
2018-02-24T13:56:26.626Z,6.20
2018-02-24T13:58:54.167Z,6.03
2018-02-24T14:01:21.729Z,6.23
2018-02-24T14:03:49.270Z,5.50
2018-02-24T14:06:16.810Z,5.70
2018-02-24T14:08:44.380Z,5.93
2018-02-24T14:11:11.918Z,6.27
2018-02-24T14:13:39.820Z,5.70
2018-02-24T14:16:07.356Z,5.80
2018-02-24T14:18:34.896Z,6.00
2018-02-24T14:21:02.457Z,6.13
2018-02-24T14:23:29.996Z,6.30
2018-02-24T14:25:57.584Z,5.43
2018-02-24T14:28:25.116Z,5.87
2018-02-24T14:30:52.683Z,5.30
2018-02-24T14:33:20.245Z,4.97
2018-02-24T14:35:48.548Z,5.30
2018-02-24T14:38:16.112Z,5.70
2018-02-24T14:40:44.409Z,5.50
2018-02-24T14:43:11.955Z,5.60
2018-02-24T14:45:40.285Z,5.63
2018-02-24T14:48:07.819Z,5.40
2018-02-24T14:50:36.181Z,4.50
2018-02-24T14:53:03.708Z,4.80
2018-02-24T14:55:31.245Z,4.57
2018-02-24T14:57:59.560Z,4.53
2018-02-24T15:00:27.118Z,4.30
2018-02-24T15:02:55.479Z,4.30
2018-02-24T15:05:23.070Z,4.50
2018-02-24T15:07:50.628Z,4.33
2018-02-24T15:10:18.652Z,4.40
2018-02-24T15:12:46.187Z,4.40
2018-02-24T15:15:13.724Z,4.00
2018-02-24T15:17:41.312Z,4.40
2018-02-24T15:20:09.666Z,4.33
2018-02-24T15:22:37.228Z,4.30
2018-02-24T15:25:06.504Z,4.27
2018-02-24T15:27:34.063Z,3.93
2018-02-24T15:30:01.604Z,3.77
2018-02-24T15:32:29.143Z,4.00
2018-02-24T15:34:56.706Z,4.27
2018-02-24T15:37:25.018Z,4.40
2018-02-24T15:39:52.614Z,4.50
2018-02-24T15:42:20.921Z,4.33
2018-02-24T15:44:48.459Z,4.47
2018-02-24T15:47:16.016Z,4.87
2018-02-24T15:49:43.548Z,4.57
2018-02-24T15:52:11.388Z,4.43
2018-02-24T15:54:38.944Z,4.40
2018-02-24T15:57:06.488Z,4.87
2018-02-24T15:59:34.819Z,4.43
2018-02-24T16:02:04.131Z,4.80
2018-02-24T16:04:31.697Z,5.10
2018-02-24T16:06:59.224Z,5.03
2018-02-24T16:09:27.537Z,4.60
2018-02-24T16:11:55.104Z,4.73
2018-02-24T16:14:22.657Z,5.47
2018-02-24T16:16:50.983Z,5.07
2018-02-24T16:19:18.589Z,5.20
2018-02-24T16:21:46.099Z,5.40
2018-02-24T16:24:14.432Z,4.43
2018-02-24T16:26:41.977Z,4.87
2018-02-24T16:29:10.600Z,5.33
2018-02-24T16:31:38.130Z,5.37
2018-02-24T16:34:05.664Z,5.00
2018-02-24T16:36:33.215Z,5.00
2018-02-24T16:39:00.755Z,5.87
2018-02-24T16:41:28.336Z,5.70
2018-02-24T16:43:55.896Z,5.70
2018-02-24T16:46:23.443Z,5.43
2018-02-24T16:48:51.783Z,5.40
2018-02-24T16:51:19.315Z,5.33
2018-02-24T16:53:47.230Z,5.43
2018-02-24T16:56:14.778Z,5.90
2018-02-24T16:58:42.968Z,5.27
2018-02-24T17:01:10.536Z,5.37
2018-02-24T17:03:38.094Z,5.53
2018-02-24T17:06:06.011Z,5.40
2018-02-24T17:08:33.543Z,5.20
2018-02-24T17:11:01.840Z,5.33
2018-02-24T17:13:29.402Z,5.33
2018-02-24T17:15:57.808Z,5.80
2018-02-24T17:18:25.731Z,5.27
2018-02-24T17:20:53.289Z,5.40
2018-02-24T17:23:20.825Z,5.50
2018-02-24T17:25:48.384Z,5.40
2018-02-24T17:28:16.683Z,5.23
2018-02-24T17:30:44.302Z,5.90
2018-02-24T17:33:11.796Z,6.00
2018-02-24T17:35:39.358Z,5.33
2018-02-24T17:38:06.891Z,5.70
2018-02-24T17:40:34.463Z,4.73
2018-02-24T17:43:02.001Z,5.10
2018-02-24T17:45:29.541Z,4.90
2018-02-24T17:47:57.105Z,5.20
2018-02-24T17:50:24.649Z,5.13
2018-02-24T17:52:52.221Z,5.33
2018-02-24T17:55:19.752Z,5.40
2018-02-24T17:57:48.043Z,4.80
2018-02-24T18:00:15.597Z,4.53
2018-02-24T18:02:43.896Z,5.20
2018-02-24T18:05:12.229Z,4.80
2018-02-24T18:07:39.774Z,4.67
2018-02-24T18:10:07.308Z,4.73
2018-02-24T18:12:34.859Z,5.03
2018-02-24T18:15:02.396Z,4.47
2018-02-24T18:17:29.963Z,4.80
2018-02-24T18:19:57.504Z,4.70
2018-02-24T18:22:25.809Z,4.77
2018-02-24T18:24:53.374Z,4.70
2018-02-24T18:27:20.919Z,5.00
2018-02-24T18:29:48.476Z,4.43
2018-02-24T18:32:16.012Z,4.20
2018-02-24T18:34:43.568Z,5.00
2018-02-24T18:37:11.136Z,4.30
2018-02-24T18:39:39.527Z,4.43
2018-02-24T18:42:07.069Z,4.37
2018-02-24T18:44:34.607Z,4.40
2018-02-24T18:47:02.165Z,4.37
2018-02-24T18:49:30.156Z,4.83
2018-02-24T18:51:57.737Z,4.60
2018-02-24T18:54:25.282Z,4.43
2018-02-24T18:56:52.844Z,4.40
2018-02-24T18:59:20.420Z,4.50
2018-02-24T19:01:47.960Z,4.53
2018-02-24T19:04:16.602Z,4.70
2018-02-24T19:06:44.144Z,4.67
2018-02-24T19:09:11.684Z,4.53
2018-02-24T19:11:39.239Z,5.07
2018-02-24T19:14:06.775Z,4.60
2018-02-24T19:16:34.356Z,4.70
2018-02-24T19:19:01.895Z,4.07
2018-02-24T19:21:29.436Z,4.37
2018-02-24T19:23:56.998Z,4.07
2018-02-24T19:26:24.541Z,4.33
2018-02-24T19:28:52.097Z,4.30
2018-02-24T19:31:19.638Z,4.30
2018-02-24T19:33:47.972Z,3.90
2018-02-24T19:36:15.504Z,4.00
2018-02-24T19:38:44.215Z,3.50
2018-02-24T19:41:11.748Z,3.73
2018-02-24T19:43:39.284Z,3.60
2018-02-24T19:46:06.836Z,3.40
2018-02-24T19:48:34.373Z,3.27
2018-02-24T19:51:02.740Z,3.40
2018-02-24T19:53:30.291Z,3.60
2018-02-24T19:55:57.828Z,3.00
2018-02-24T19:58:25.416Z,3.27
2018-02-24T20:00:52.960Z,3.03
2018-02-24T20:03:21.293Z,3.13
2018-02-24T20:05:48.833Z,2.90
2018-02-24T20:08:16.376Z,3.30
2018-02-24T20:10:43.962Z,3.20
2018-02-24T20:13:12.259Z,3.03
2018-02-24T20:15:39.837Z,3.00
2018-02-24T20:18:07.396Z,3.00
2018-02-24T20:20:35.704Z,2.90
2018-02-24T20:23:03.260Z,2.77
2018-02-24T20:25:31.572Z,2.60
2018-02-24T20:27:59.149Z,2.67
2018-02-24T20:30:26.699Z,2.83
2018-02-24T20:32:54.251Z,2.60
2018-02-24T20:35:22.619Z,2.60
2018-02-24T20:37:50.162Z,2.40
2018-02-24T20:40:17.742Z,2.40
2018-02-24T20:42:45.291Z,2.67
2018-02-24T20:45:12.850Z,2.50
2018-02-24T20:47:40.436Z,2.70
2018-02-24T20:50:07.974Z,2.20
2018-02-24T20:52:36.320Z,2.70
2018-02-24T20:55:04.627Z,2.33
2018-02-24T20:57:32.167Z,1.93
2018-02-24T20:59:59.728Z,2.33
2018-02-24T21:02:27.267Z,2.67
2018-02-24T21:04:55.592Z,2.60
2018-02-24T21:07:23.147Z,2.50
2018-02-24T21:09:50.689Z,2.50
2018-02-24T21:12:19.028Z,2.87
2018-02-24T21:14:46.563Z,2.90
2018-02-24T21:17:14.844Z,2.50
2018-02-24T21:19:43.147Z,2.40
2018-02-24T21:22:10.688Z,2.60
2018-02-24T21:24:38.257Z,2.97
2018-02-24T21:27:05.792Z,2.67
2018-02-24T21:29:33.381Z,2.63
2018-02-24T21:32:00.923Z,2.60
2018-02-24T21:34:28.464Z,2.60
2018-02-24T21:36:56.788Z,2.60
2018-02-24T21:39:24.545Z,2.20
2018-02-24T21:41:52.130Z,2.50
2018-02-24T21:44:19.672Z,2.77
2018-02-24T21:46:47.220Z,2.60
2018-02-24T21:49:14.779Z,2.97
2018-02-24T21:51:42.324Z,2.53
2018-02-24T21:54:09.890Z,2.90
2018-02-24T21:56:37.432Z,2.70
2018-02-24T21:59:04.983Z,2.73
2018-02-24T22:01:33.633Z,2.53
2018-02-24T22:04:01.198Z,3.00
2018-02-24T22:06:28.728Z,2.80
2018-02-24T22:08:57.042Z,3.00
2018-02-24T22:11:24.605Z,2.90
2018-02-24T22:13:52.156Z,2.70
2018-02-24T22:16:21.333Z,2.90
2018-02-24T22:18:48.863Z,2.77
2018-02-24T22:21:16.400Z,2.93
2018-02-24T22:23:44.732Z,3.13
2018-02-24T22:26:12.288Z,3.20
2018-02-24T22:28:39.847Z,3.17
2018-02-24T22:31:08.148Z,2.80
2018-02-24T22:33:35.724Z,3.20
2018-02-24T22:36:03.295Z,2.57
2018-02-24T22:38:30.832Z,2.67
2018-02-24T22:40:58.669Z,2.63
2018-02-24T22:43:26.199Z,3.00
2018-02-24T22:45:53.731Z,3.30
2018-02-24T22:48:27.048Z,2.80
2018-02-24T22:50:54.597Z,2.53
2018-02-24T22:53:22.166Z,2.60
2018-02-24T22:55:49.716Z,2.90
2018-02-24T22:58:17.263Z,3.07
2018-02-24T23:00:45.580Z,2.83
2018-02-24T23:03:13.120Z,3.10
2018-02-24T23:05:40.692Z,3.20
2018-02-24T23:08:08.231Z,2.93
2018-02-24T23:10:35.765Z,2.70
2018-02-24T23:13:03.327Z,2.47
2018-02-24T23:15:30.868Z,2.63
2018-02-24T23:17:59.193Z,2.67
2018-02-24T23:20:26.731Z,2.83
2018-02-24T23:22:54.267Z,2.30
2018-02-24T23:25:21.821Z,2.70
2018-02-24T23:27:49.364Z,2.77
2018-02-24T23:30:17.737Z,2.80
2018-02-24T23:32:45.293Z,2.83
2018-02-24T23:35:12.833Z,3.10
2018-02-24T23:37:40.396Z,2.90
2018-02-24T23:40:08.657Z,2.60
2018-02-24T23:42:45.611Z,2.90
2018-02-24T23:45:13.928Z,2.70
2018-02-24T23:47:41.747Z,2.93
2018-02-24T23:50:10.633Z,2.67
2018-02-24T23:52:38.235Z,2.80
2018-02-24T23:55:05.800Z,2.87
2018-02-24T23:57:33.958Z,3.10
